Time,TemperatureF,DewpointF,PressureIn,WindDirection,WindDirectionDegrees,WindSpeedMPH,WindSpeedGustMPH,Humidity,HourlyPrecipIn,Conditions,Clouds,dailyrainin,SoftwareType,DateUTC
2015-05-05 00:03:00,60.4,18.0,25.60,SW,225,1.1,1.1,19,0.00,,---,0.00,VWS V14.00,2015-05-05 07:03:00,
2015-05-05 00:08:00,60.1,17.7,25.60,SSW,202,3.1,3.1,19,0.00,,---,0.00,VWS V14.00,2015-05-05 07:08:00,
2015-05-05 00:13:00,60.1,17.7,25.60,SW,225,4.0,4.0,19,0.00,,---,0.00,VWS V14.00,2015-05-05 07:13:00,
2015-05-05 00:18:00,60.1,17.7,25.60,SW,225,4.0,4.0,19,0.00,,---,0.00,VWS V14.00,2015-05-05 07:18:00,
2015-05-05 00:23:00,59.9,17.6,25.60,West,270,3.6,3.6,19,0.00,,---,0.00,VWS V14.00,2015-05-05 07:23:00,
2015-05-05 00:28:00,60.1,17.7,25.60,SW,225,0.0,0.0,19,0.00,,---,0.00,VWS V14.00,2015-05-05 07:28:00,
2015-05-05 00:33:00,60.3,17.9,25.60,WSW,248,4.3,5.8,19,0.00,,---,0.00,VWS V14.00,2015-05-05 07:33:00,
2015-05-05 00:38:00,60.4,15.4,25.60,South,180,5.4,5.4,17,0.00,,---,0.00,VWS V14.00,2015-05-05 07:38:00,
2015-05-05 00:43:00,60.3,15.3,25.60,WSW,248,3.6,3.6,17,0.00,,---,0.00,VWS V14.00,2015-05-05 07:43:00,
2015-05-05 00:48:00,60.3,15.3,25.60,SSW,202,3.4,4.9,17,0.00,,---,0.00,VWS V14.00,2015-05-05 07:48:00,
2015-05-05 00:53:00,60.8,14.4,25.60,WSW,248,7.6,7.6,16,0.00,,---,0.00,VWS V14.00,2015-05-05 07:53:00,
2015-05-05 00:58:00,60.4,15.4,25.60,WNW,292,4.5,4.5,17,0.00,,---,0.00,VWS V14.00,2015-05-05 07:58:00,
2015-05-05 01:03:00,60.6,15.6,25.60,WSW,248,4.7,4.7,17,0.00,,---,0.00,VWS V14.00,2015-05-05 08:03:00,
2015-05-05 01:08:00,60.6,15.6,25.60,WNW,292,3.8,3.8,17,0.00,,---,0.00,VWS V14.00,2015-05-05 08:08:00,
2015-05-05 01:13:00,60.6,15.6,25.60,South,180,4.0,7.4,17,0.00,,---,0.00,VWS V14.00,2015-05-05 08:13:00,
2015-05-05 01:18:00,60.6,15.6,25.60,SSW,202,1.6,1.6,17,0.00,,---,0.00,VWS V14.00,2015-05-05 08:18:00,
2015-05-05 01:23:00,60.1,15.1,25.60,WSW,248,4.9,4.9,17,0.00,,---,0.00,VWS V14.00,2015-05-05 08:23:00,
2015-05-05 01:28:00,60.8,14.4,25.60,NE,45,3.4,3.4,16,0.00,,---,0.00,VWS V14.00,2015-05-05 08:28:00,
2015-05-05 01:33:00,60.1,15.1,25.60,WNW,292,3.1,3.1,17,0.00,,---,0.00,VWS V14.00,2015-05-05 08:33:00,
2015-05-05 01:38:00,59.0,14.3,25.60,West,270,4.9,4.9,17,0.00,,---,0.00,VWS V14.00,2015-05-05 08:38:00,
2015-05-05 01:43:00,59.7,14.9,25.60,West,270,3.4,6.5,17,0.00,,---,0.00,VWS V14.00,2015-05-05 08:43:00,
2015-05-05 01:48:00,59.5,14.7,25.60,NW,315,2.5,2.9,17,0.00,,---,0.00,VWS V14.00,2015-05-05 08:48:00,
2015-05-05 01:53:00,59.7,14.9,25.60,NW,315,7.4,7.4,17,0.00,,---,0.00,VWS V14.00,2015-05-05 08:53:00,
2015-05-05 01:58:00,59.0,14.3,25.60,NW,315,2.7,2.7,17,0.00,,---,0.00,VWS V14.00,2015-05-05 08:58:00,
2015-05-05 02:03:00,57.9,13.4,25.60,WNW,292,0.0,0.0,17,0.00,,---,0.00,VWS V14.00,2015-05-05 09:03:00,
2015-05-05 02:08:00,57.4,12.9,25.60,WNW,292,0.0,0.0,17,0.00,,---,0.00,VWS V14.00,2015-05-05 09:08:00,
2015-05-05 02:13:00,57.4,12.9,25.60,North,0,0.0,0.0,17,0.00,,---,0.00,VWS V14.00,2015-05-05 09:13:00,
2015-05-05 02:18:00,56.5,12.2,25.60,North,0,0.0,0.0,17,0.00,,---,0.00,VWS V14.00,2015-05-05 09:18:00,
2015-05-05 02:23:00,56.3,12.1,25.60,WNW,292,0.0,3.1,17,0.00,,---,0.00,VWS V14.00,2015-05-05 09:23:00,
2015-05-05 02:28:00,56.1,11.9,25.60,West,270,2.9,3.1,17,0.00,,---,0.00,VWS V14.00,2015-05-05 09:28:00,
2015-05-05 02:33:00,56.5,12.2,25.60,West,270,4.3,4.3,17,0.00,,---,0.00,VWS V14.00,2015-05-05 09:33:00,
2015-05-05 02:38:00,55.8,11.6,25.60,WSW,248,0.0,0.0,17,0.00,,---,0.00,VWS V14.00,2015-05-05 09:38:00,
2015-05-05 02:43:00,56.1,11.9,25.60,WNW,292,3.8,3.8,17,0.00,,---,0.00,VWS V14.00,2015-05-05 09:43:00,
2015-05-05 02:48:00,55.8,11.6,25.60,WNW,292,2.0,2.5,17,0.00,,---,0.00,VWS V14.00,2015-05-05 09:48:00,
2015-05-05 02:53:00,55.2,12.5,25.60,WNW,292,0.0,0.0,18,0.00,,---,0.00,VWS V14.00,2015-05-05 09:53:00,
2015-05-05 02:58:00,55.6,11.5,25.60,WSW,248,3.4,4.9,17,0.00,,---,0.00,VWS V14.00,2015-05-05 09:58:00,
2015-05-05 03:03:00,55.4,11.3,25.60,West,270,0.0,0.0,17,0.00,,---,0.00,VWS V14.00,2015-05-05 10:03:00,
2015-05-05 03:08:00,55.9,11.8,25.60,West,270,2.5,3.4,17,0.00,,---,0.00,VWS V14.00,2015-05-05 10:08:00,
2015-05-05 03:13:00,56.5,12.2,25.60,West,270,3.1,3.1,17,0.00,,---,0.00,VWS V14.00,2015-05-05 10:13:00,
2015-05-05 03:18:00,57.2,12.8,25.60,West,270,4.0,4.9,17,0.00,,---,0.00,VWS V14.00,2015-05-05 10:18:00,
2015-05-05 03:23:00,57.7,13.2,25.60,West,270,5.4,6.3,17,0.00,,---,0.00,VWS V14.00,2015-05-05 10:23:00,
2015-05-05 03:28:00,57.9,13.4,25.60,West,270,6.0,7.4,17,0.00,,---,0.00,VWS V14.00,2015-05-05 10:28:00,
2015-05-05 03:33:00,57.9,13.4,25.60,WSW,248,6.0,6.0,17,0.00,,---,0.00,VWS V14.00,2015-05-05 10:33:00,
2015-05-05 03:38:00,58.3,13.7,25.60,West,270,4.3,4.3,17,0.00,,---,0.00,VWS V14.00,2015-05-05 10:38:00,
2015-05-05 03:43:00,57.4,12.9,25.57,West,270,3.8,3.8,17,0.00,,---,0.00,VWS V14.00,2015-05-05 10:43:00,
2015-05-05 03:48:00,57.6,13.1,25.57,WNW,292,0.0,3.1,17,0.00,,---,0.00,VWS V14.00,2015-05-05 10:48:00,
2015-05-05 03:53:00,57.2,12.8,25.57,WNW,292,3.1,4.9,17,0.00,,---,0.00,VWS V14.00,2015-05-05 10:53:00,
2015-05-05 03:58:00,56.8,12.5,25.57,West,270,3.1,3.1,17,0.00,,---,0.00,VWS V14.00,2015-05-05 10:58:00,
2015-05-05 04:03:00,56.3,12.1,25.57,West,270,6.0,6.0,17,0.00,,---,0.00,VWS V14.00,2015-05-05 11:03:00,
2015-05-05 04:08:00,56.8,12.5,25.57,WNW,292,2.9,2.9,17,0.00,,---,0.00,VWS V14.00,2015-05-05 11:08:00,
2015-05-05 04:13:00,56.7,12.4,25.57,West,270,2.7,4.0,17,0.00,,---,0.00,VWS V14.00,2015-05-05 11:13:00,
2015-05-05 04:18:00,56.7,12.4,25.57,SW,225,4.3,4.9,17,0.00,,---,0.00,VWS V14.00,2015-05-05 11:18:00,
2015-05-05 04:23:00,57.2,12.8,25.57,West,270,5.8,5.8,17,0.00,,---,0.00,VWS V14.00,2015-05-05 11:23:00,
2015-05-05 04:28:00,57.2,12.8,25.60,WNW,292,3.1,4.3,17,0.00,,---,0.00,VWS V14.00,2015-05-05 11:28:00,
2015-05-05 04:33:00,56.3,12.1,25.60,NW,315,2.5,3.4,17,0.00,,---,0.00,VWS V14.00,2015-05-05 11:33:00,